Pedro Bay, AK (99647)

7:27 AM AKST on December 04, 2016 (GMT -0900)
Iliamna | | Change Station

Elev 161 ft 59.75 °N, 154.91 °W | Updated 34 minutes ago

Clear
Clear
-3 °F
Feels Like -20 °F
N
10
Wind Variable Wind from NNW

Today
High -- | Low -- °F
--% Chance of Precip.
Yesterday
High -- | Low -- °F
Precip. -- in
Pressure 30.43 in
Visibility 10.0 miles
Clouds Clear
Windchill -20 °F
Dew Point -13 °F
Humidity 62%
Rainfall 0.00 in
Snow Depth Not available.
9:56 AM 4:16 PM
Waxing Crescent, 23% visible
METAR PAIL 041553Z 33009KT 10SM CLR M19/M25 A3040 RMK AO2 SLP302 T11941250
Pressure 30.43 in
Visibility 10.0 miles
Clouds Clear
Windchill -20 °F
Dew Point -13 °F
Humidity 62%
Rainfall 0.00 in
Snow Depth Not available.
9:56 AM 4:16 PM
Waxing Crescent, 23% visible
METAR PAIL 041553Z 33009KT 10SM CLR M19/M25 A3040 RMK AO2 SLP302 T11941250

10-Day Weather Forecast

Almanac

Astronomy

Dec. 04, 2016 Rise Set
Actual Time
Civil Twilight
Nautical Twilight
Astronomical Twilight
Moon
Length of Visible Light
Length of Day
Tomorrow will be .
, % of the Moon is Illuminated

Today's Extremes

State Highs State Lows

Community

WunderPhotos

Upload Photos

1,955,617 photos uploaded!

WunderBlog® & News

Nearby

Air Quality

  Air Quality AQ Index Pollutant
Not available.

Snow Depth

Station Depth Elevation

Earthquake Activity

City Distance Mag. Time & Date
Minimum magnitude displayed is 2.5.

Coastal Water Temperatures

Place Temperature

Stations

Nearby Weather Stations

Station Location Temp. Windchill Dew Point Humidity Wind Precip. Elev Updated Type
                   

Watches & Warnings

There are currently no watches in effect.